CST,Max TemperatureF,Mean TemperatureF,Min TemperatureF,Max Dew PointF,MeanDew PointF,Min DewpointF,Max Humidity, Mean Humidity, Min Humidity, Max Sea Level PressureIn, Mean Sea Level PressureIn, Min Sea Level PressureIn, Max VisibilityMiles, Mean VisibilityMiles, Min VisibilityMiles, Max Wind SpeedMPH, Mean Wind SpeedMPH, Max Gust SpeedMPH,PrecipitationIn, CloudCover, Events, WindDirDegrees
2012-12-1,75,62,48,62,53,44,93,81,62,30.27,30.22,30.19,10,6,0,10,2,,0.00,2,Fog,124
2012-12-2,77,64,52,62,55,48,94,81,54,30.29,30.23,30.20,10,6,0,12,2,,0.00,2,Fog,113
2012-12-3,79,67,55,62,58,52,90,77,44,30.24,30.19,30.15,10,7,0,14,4,18,0.01,3,Fog,126
2012-12-4,78,72,66,64,62,60,84,77,54,30.24,30.18,30.14,10,10,7,14,7,21,0.01,6,Rain,145
2012-12-5,71,66,61,63,61,58,90,83,66,30.14,30.09,30.03,10,10,4,12,6,,0.07,6,Rain,106
2012-12-6,73,64,55,62,57,52,94,82,64,30.03,29.99,29.95,10,5,0,13,3,16,0.02,5,Fog,102
2012-12-7,73,66,59,63,60,55,90,82,65,29.99,29.95,29.90,10,4,0,6,2,,0.00,7,Fog-Rain,109
2012-12-8,75,65,55,61,56,51,94,79,45,30.01,29.96,29.93,10,5,0,8,1,,0.02,4,Fog,190
2012-12-9,78,69,60,68,63,55,90,81,65,30.02,29.97,29.93,10,7,0,22,6,25,0.00,6,Fog,169
2012-12-10,78,65,51,67,59,38,97,82,61,30.00,29.87,29.82,10,8,1,18,10,36,0.00,8,Rain-Thunderstorm,264
2012-12-11,50,47,44,36,35,33,71,64,57,30.19,30.09,30.00,10,10,8,13,8,21,0.00,6,,19
2012-12-12,57,46,36,35,31,19,82,60,25,30.30,30.23,30.17,10,10,7,12,6,17,0.00,3,,5
2012-12-13,60,46,32,41,35,28,89,68,44,30.37,30.30,30.27,10,10,4,13,4,,0.00,0,Fog,47
2012-12-14,66,51,36,53,44,33,89,78,56,30.30,30.22,30.09,10,7,2,13,3,,0.00,4,Fog,96
2012-12-15,75,67,59,59,56,52,90,75,57,30.11,30.04,29.99,10,9,2,13,5,18,0.00,4,,145
2012-12-16,77,66,55,64,58,53,94,81,60,29.99,29.92,29.84,10,7,0,14,3,24,0.00,5,Fog-Rain,151
2012-12-17,71,62,53,66,61,49,89,84,68,29.94,29.84,29.80,10,6,1,13,6,,0.00,6,Rain,237
2012-12-18,68,54,41,48,43,37,93,74,42,30.06,30.00,29.95,10,6,0,8,1,,0.01,0,Fog,139
2012-12-19,75,62,50,68,57,46,89,77,56,30.04,29.97,29.89,10,9,2,16,7,24,0.00,4,Fog-Rain,154
2012-12-20,73,62,50,70,43,16,90,54,26,30.32,30.03,29.86,10,8,1,26,16,41,0.07,5,Rain,303
2012-12-21,55,45,34,31,19,14,82,38,19,30.45,30.38,30.31,10,10,10,12,8,21,0.00,1,,329
2012-12-22,62,46,30,36,30,24,86,63,23,30.45,30.36,30.25,10,10,10,5,1,,0.00,2,,130
2012-12-23,68,54,41,58,50,36,85,71,59,30.24,30.12,30.00,10,10,10,13,4,,0.00,6,,170
2012-12-24,77,69,61,63,61,58,94,81,58,29.99,29.92,29.88,10,8,0,13,8,20,0.00,5,Fog,213
2012-12-25,75,66,55,67,62,43,94,81,62,29.87,29.70,29.56,10,7,1,26,11,38,0.00,5,Rain-Thunderstorm,197
2012-12-26,52,46,39,40,33,28,79,62,54,30.18,30.03,29.80,10,10,10,15,10,28,0.00,5,,322
2012-12-27,54,46,37,47,36,30,86,73,54,30.21,30.13,30.02,10,9,7,10,6,,0.00,5,,60
2012-12-28,70,62,51,65,56,46,94,81,73,30.01,29.92,29.78,10,9,4,18,9,29,0.00,8,Rain,167
2012-12-29,51,46,41,46,33,26,82,60,46,30.37,30.25,30.12,10,10,10,12,9,28,0.00,6,,330
2012-12-30,50,42,34,32,27,24,89,62,36,30.49,30.41,30.34,10,10,8,16,7,21,0.00,3,,49
2012-12-31,61,49,37,55,44,32,84,70,59,30.27,30.17,30.08,10,10,9,15,7,21,0.00,6,,85